sensor_id;sensor_type;location;lat;lon;timestamp;pressure;altitude;pressure_sealevel;temperature;humidity
71361;BME280;59166;48.908;1.870;2023-05-23T00:00:34;100793.13;;;15.08;96.85
71361;BME280;59166;48.908;1.870;2023-05-23T00:05:35;100792.03;;;15.04;97.04
71361;BME280;59166;48.908;1.870;2023-05-23T00:10:37;100790.72;;;14.96;97.80
71361;BME280;59166;48.908;1.870;2023-05-23T00:15:38;100790.69;;;14.91;98.69
71361;BME280;59166;48.908;1.870;2023-05-23T00:20:39;100784.72;;;14.89;98.71
71361;BME280;59166;48.908;1.870;2023-05-23T00:25:45;100782.56;;;14.86;99.48
71361;BME280;59166;48.908;1.870;2023-05-23T00:30:47;100775.22;;;14.81;99.53
71361;BME280;59166;48.908;1.870;2023-05-23T00:35:47;100772.75;;;14.80;99.60
71361;BME280;59166;48.908;1.870;2023-05-23T00:40:50;100774.13;;;14.82;99.41
71361;BME280;59166;48.908;1.870;2023-05-23T00:45:51;100770.63;;;14.72;99.76
71361;BME280;59166;48.908;1.870;2023-05-23T00:50:52;100766.84;;;14.68;99.55
71361;BME280;59166;48.908;1.870;2023-05-23T00:55:55;100752.69;;;14.61;99.44
71361;BME280;59166;48.908;1.870;2023-05-23T01:00:56;100760.59;;;14.57;99.62
71361;BME280;59166;48.908;1.870;2023-05-23T01:05:57;100769.84;;;14.51;99.81
71361;BME280;59166;48.908;1.870;2023-05-23T01:11:02;100767.94;;;14.57;98.75
71361;BME280;59166;48.908;1.870;2023-05-23T01:16:09;100767.69;;;14.48;99.59
71361;BME280;59166;48.908;1.870;2023-05-23T01:21:16;100762.53;;;14.41;99.89
71361;BME280;59166;48.908;1.870;2023-05-23T01:26:31;100762.00;;;14.29;99.67
71361;BME280;59166;48.908;1.870;2023-05-23T01:31:35;100765.25;;;14.26;99.22
71361;BME280;59166;48.908;1.870;2023-05-23T01:36:39;100773.97;;;14.23;98.97
71361;BME280;59166;48.908;1.870;2023-05-23T01:41:40;100771.53;;;14.22;99.28
71361;BME280;59166;48.908;1.870;2023-05-23T01:46:43;100771.53;;;14.07;100.00
71361;BME280;59166;48.908;1.870;2023-05-23T01:51:46;100750.59;;;14.02;100.00
71361;BME280;59166;48.908;1.870;2023-05-23T01:56:47;100756.03;;;14.07;100.00
71361;BME280;59166;48.908;1.870;2023-05-23T02:01:50;100766.63;;;14.04;100.00
71361;BME280;59166;48.908;1.870;2023-05-23T02:06:51;100764.72;;;13.99;100.00
71361;BME280;59166;48.908;1.870;2023-05-23T02:11:52;100757.41;;;13.89;100.00
71361;BME280;59166;48.908;1.870;2023-05-23T02:16:54;100751.13;;;13.79;100.00
71361;BME280;59166;48.908;1.870;2023-05-23T02:21:55;100767.44;;;13.79;100.00
71361;BME280;59166;48.908;1.870;2023-05-23T02:26:56;100767.72;;;13.77;100.00
71361;BME280;59166;48.908;1.870;2023-05-23T02:31:59;100769.63;;;13.77;100.00
71361;BME280;59166;48.908;1.870;2023-05-23T02:37:00;100775.84;;;13.72;100.00
71361;BME280;59166;48.908;1.870;2023-05-23T02:42:01;100771.78;;;13.70;100.00
71361;BME280;59166;48.908;1.870;2023-05-23T02:47:03;100770.69;;;13.71;100.00
71361;BME280;59166;48.908;1.870;2023-05-23T02:52:05;100769.59;;;13.72;100.00
71361;BME280;59166;48.908;1.870;2023-05-23T02:57:06;100771.78;;;13.70;100.00
71361;BME280;59166;48.908;1.870;2023-05-23T03:02:08;100779.91;;;13.75;100.00
71361;BME280;59166;48.908;1.870;2023-05-23T03:07:09;100773.91;;;13.63;100.00
71361;BME280;59166;48.908;1.870;2023-05-23T03:12:10;100779.31;;;13.63;100.00
71361;BME280;59166;48.908;1.870;2023-05-23T03:17:13;100778.47;;;13.42;100.00
71361;BME280;59166;48.908;1.870;2023-05-23T03:22:14;100793.38;;;13.39;100.00
71361;BME280;59166;48.908;1.870;2023-05-23T03:27:15;100793.91;;;13.31;100.00
71361;BME280;59166;48.908;1.870;2023-05-23T03:32:17;100792.53;;;13.29;100.00
71361;BME280;59166;48.908;1.870;2023-05-23T03:37:18;100800.56;;;13.04;100.00
71361;BME280;59166;48.908;1.870;2023-05-23T03:42:19;100806.22;;;12.92;100.00
71361;BME280;59166;48.908;1.870;2023-05-23T03:47:21;100797.50;;;12.85;100.00
71361;BME280;59166;48.908;1.870;2023-05-23T03:52:22;100802.84;;;12.75;100.00
71361;BME280;59166;48.908;1.870;2023-05-23T03:57:23;100810.75;;;12.81;100.00
71361;BME280;59166;48.908;1.870;2023-05-23T04:02:25;100807.75;;;12.78;100.00
71361;BME280;59166;48.908;1.870;2023-05-23T04:07:26;100802.66;;;12.86;100.00
71361;BME280;59166;48.908;1.870;2023-05-23T04:12:27;100807.50;;;12.84;100.00
71361;BME280;59166;48.908;1.870;2023-05-23T04:17:30;100811.53;;;12.77;100.00
71361;BME280;59166;48.908;1.870;2023-05-23T04:22:30;100811.22;;;12.68;100.00
71361;BME280;59166;48.908;1.870;2023-05-23T04:27:31;100822.06;;;12.68;100.00
71361;BME280;59166;48.908;1.870;2023-05-23T04:32:34;100838.88;;;12.70;100.00
71361;BME280;59166;48.908;1.870;2023-05-23T04:37:35;100843.50;;;12.70;100.00
71361;BME280;59166;48.908;1.870;2023-05-23T04:42:36;100842.97;;;12.73;100.00
71361;BME280;59166;48.908;1.870;2023-05-23T04:47:40;100828.03;;;12.70;100.00
71361;BME280;59166;48.908;1.870;2023-05-23T04:52:41;100832.91;;;12.68;100.00
71361;BME280;59166;48.908;1.870;2023-05-23T04:57:42;100852.72;;;12.69;100.00
71361;BME280;59166;48.908;1.870;2023-05-23T05:02:44;100855.13;;;12.65;100.00
71361;BME280;59166;48.908;1.870;2023-05-23T05:07:45;100846.47;;;12.68;100.00
71361;BME280;59166;48.908;1.870;2023-05-23T05:12:46;100850.53;;;12.71;100.00
71361;BME280;59166;48.908;1.870;2023-05-23T05:17:49;100847.88;;;12.76;100.00
71361;BME280;59166;48.908;1.870;2023-05-23T05:22:54;100858.50;;;12.87;100.00
71361;BME280;59166;48.908;1.870;2023-05-23T05:27:56;100857.16;;;12.85;100.00
71361;BME280;59166;48.908;1.870;2023-05-23T05:32:58;100854.75;;;12.94;100.00
71361;BME280;59166;48.908;1.870;2023-05-23T05:37:59;100851.25;;;12.98;100.00
71361;BME280;59166;48.908;1.870;2023-05-23T05:43:00;100862.16;;;13.03;100.00
71361;BME280;59166;48.908;1.870;2023-05-23T05:48:03;100876.25;;;13.05;100.00
71361;BME280;59166;48.908;1.870;2023-05-23T05:53:04;100880.00;;;12.99;100.00
71361;BME280;59166;48.908;1.870;2023-05-23T05:58:04;100880.31;;;13.03;100.00
71361;BME280;59166;48.908;1.870;2023-05-23T06:03:07;100871.38;;;13.07;100.00
71361;BME280;59166;48.908;1.870;2023-05-23T06:08:08;100872.41;;;13.01;100.00
71361;BME280;59166;48.908;1.870;2023-05-23T06:13:09;100877.84;;;13.01;100.00
71361;BME280;59166;48.908;1.870;2023-05-23T06:18:12;100885.50;;;13.09;100.00
71361;BME280;59166;48.908;1.870;2023-05-23T06:23:13;100878.44;;;13.08;100.00
71361;BME280;59166;48.908;1.870;2023-05-23T06:28:13;100890.94;;;13.09;100.00
71361;BME280;59166;48.908;1.870;2023-05-23T06:33:22;100889.09;;;13.20;100.00
71361;BME280;59166;48.908;1.870;2023-05-23T06:38:24;100889.09;;;13.25;100.00
71361;BME280;59166;48.908;1.870;2023-05-23T06:43:25;100892.63;;;13.20;100.00
71361;BME280;59166;48.908;1.870;2023-05-23T06:48:28;100893.41;;;13.21;100.00
71361;BME280;59166;48.908;1.870;2023-05-23T06:53:28;100912.97;;;13.23;100.00
71361;BME280;59166;48.908;1.870;2023-05-23T06:58:29;100909.22;;;13.29;100.00
71361;BME280;59166;48.908;1.870;2023-05-23T07:03:32;100920.06;;;13.29;100.00
71361;BME280;59166;48.908;1.870;2023-05-23T07:08:33;100921.94;;;13.28;100.00
71361;BME280;59166;48.908;1.870;2023-05-23T07:13:33;100923.59;;;13.29;100.00
71361;BME280;59166;48.908;1.870;2023-05-23T07:18:36;100932.56;;;13.35;100.00
71361;BME280;59166;48.908;1.870;2023-05-23T07:23:37;100942.66;;;13.39;100.00
71361;BME280;59166;48.908;1.870;2023-05-23T07:28:37;100945.91;;;13.41;100.00
71361;BME280;59166;48.908;1.870;2023-05-23T07:33:40;100951.09;;;13.43;100.00
71361;BME280;59166;48.908;1.870;2023-05-23T07:38:41;100960.06;;;13.49;100.00
71361;BME280;59166;48.908;1.870;2023-05-23T07:43:42;100955.50;;;13.59;100.00
71361;BME280;59166;48.908;1.870;2023-05-23T07:48:44;100954.97;;;13.62;100.00
71361;BME280;59166;48.908;1.870;2023-05-23T07:53:45;100967.19;;;13.60;100.00
71361;BME280;59166;48.908;1.870;2023-05-23T07:58:46;100973.13;;;13.57;100.00
71361;BME280;59166;48.908;1.870;2023-05-23T08:03:50;100977.50;;;13.58;100.00
71361;BME280;59166;48.908;1.870;2023-05-23T08:08:51;100975.84;;;13.57;100.00
71361;BME280;59166;48.908;1.870;2023-05-23T08:13:52;100982.66;;;13.59;100.00
71361;BME280;59166;48.908;1.870;2023-05-23T08:18:54;100983.47;;;13.60;100.00
71361;BME280;59166;48.908;1.870;2023-05-23T08:23:55;100983.19;;;13.61;100.00
71361;BME280;59166;48.908;1.870;2023-05-23T08:28:56;100978.03;;;13.60;100.00
71361;BME280;59166;48.908;1.870;2023-05-23T08:33:58;100989.44;;;13.57;100.00
71361;BME280;59166;48.908;1.870;2023-05-23T08:38:59;100985.13;;;13.66;100.00
71361;BME280;59166;48.908;1.870;2023-05-23T08:44:00;100987.53;;;13.62;100.00
71361;BME280;59166;48.908;1.870;2023-05-23T08:49:03;100992.78;;;13.69;100.00
71361;BME280;59166;48.908;1.870;2023-05-23T08:54:05;100986.03;;;13.81;100.00
71361;BME280;59166;48.908;1.870;2023-05-23T08:59:07;100979.84;;;13.96;100.00
71361;BME280;59166;48.908;1.870;2023-05-23T09:04:11;100983.44;;;14.07;100.00
71361;BME280;59166;48.908;1.870;2023-05-23T09:09:12;100988.34;;;14.20;100.00
71361;BME280;59166;48.908;1.870;2023-05-23T09:14:13;100996.28;;;14.31;100.00
71361;BME280;59166;48.908;1.870;2023-05-23T09:19:17;101002.78;;;14.35;100.00
71361;BME280;59166;48.908;1.870;2023-05-23T09:24:19;101001.16;;;14.29;100.00
71361;BME280;59166;48.908;1.870;2023-05-23T09:29:20;101012.56;;;14.21;100.00
71361;BME280;59166;48.908;1.870;2023-05-23T09:34:22;101010.94;;;14.30;100.00
71361;BME280;59166;48.908;1.870;2023-05-23T09:39:23;101007.94;;;14.27;100.00
71361;BME280;59166;48.908;1.870;2023-05-23T09:44:24;101020.72;;;14.21;100.00
71361;BME280;59166;48.908;1.870;2023-05-23T09:49:26;101018.84;;;14.32;100.00
71361;BME280;59166;48.908;1.870;2023-05-23T09:54:27;101028.06;;;14.26;100.00
71361;BME280;59166;48.908;1.870;2023-05-23T09:59:30;101026.06;;;14.06;100.00
71361;BME280;59166;48.908;1.870;2023-05-23T10:04:34;101027.97;;;14.01;100.00
71361;BME280;59166;48.908;1.870;2023-05-23T10:09:37;101024.97;;;14.02;100.00
71361;BME280;59166;48.908;1.870;2023-05-23T10:14:43;101020.31;;;13.93;100.00
71361;BME280;59166;48.908;1.870;2023-05-23T10:19:54;101027.16;;;14.00;100.00
71361;BME280;59166;48.908;1.870;2023-05-23T10:24:57;101031.47;;;13.91;100.00
71361;BME280;59166;48.908;1.870;2023-05-23T10:29:59;101029.28;;;13.88;100.00
71361;BME280;59166;48.908;1.870;2023-05-23T10:52:38;101018.13;;;14.82;95.41
71361;BME280;59166;48.908;1.870;2023-05-23T10:58:24;101023.56;;;14.82;95.70
71361;BME280;59166;48.908;1.870;2023-05-23T11:03:37;101018.91;;;14.67;95.97
71361;BME280;59166;48.908;1.870;2023-05-23T11:09:05;101026.25;;;14.67;97.36
71361;BME280;59166;48.908;1.870;2023-05-23T11:14:11;101018.69;;;14.89;92.87
71361;BME280;59166;48.908;1.870;2023-05-23T11:19:24;101020.84;;;15.42;91.71
71361;BME280;59166;48.908;1.870;2023-05-23T11:24:49;101009.78;;;15.98;83.26
71361;BME280;59166;48.908;1.870;2023-05-23T11:29:58;101002.97;;;17.27;84.61
71361;BME280;59166;48.908;1.870;2023-05-23T11:35:02;100998.03;;;17.82;75.52
71361;BME280;59166;48.908;1.870;2023-05-23T11:40:24;100997.88;;;17.73;71.86
71361;BME280;59166;48.908;1.870;2023-05-23T11:45:26;100996.47;;;17.76;75.25
71361;BME280;59166;48.908;1.870;2023-05-23T11:50:29;100998.31;;;17.57;74.91
71361;BME280;59166;48.908;1.870;2023-05-23T11:55:30;101000.34;;;17.46;73.78
71361;BME280;59166;48.908;1.870;2023-05-23T12:00:31;100988.13;;;17.38;74.89
71361;BME280;59166;48.908;1.870;2023-05-23T12:05:33;100995.03;;;18.44;70.32
71361;BME280;59166;48.908;1.870;2023-05-23T12:10:34;100993.41;;;19.32;69.18
71361;BME280;59166;48.908;1.870;2023-05-23T12:15:35;100991.81;;;19.72;61.27
71361;BME280;59166;48.908;1.870;2023-05-23T12:20:41;100994.97;;;19.65;60.90
71361;BME280;59166;48.908;1.870;2023-05-23T12:26:52;100983.13;;;19.24;61.27
71361;BME280;59166;48.908;1.870;2023-05-23T12:31:15;100989.19;;;18.70;65.88
71361;BME280;59166;48.908;1.870;2023-05-23T12:36:24;100989.34;;;18.60;66.80
71361;BME280;59166;48.908;1.870;2023-05-23T12:41:26;100993.19;;;19.28;64.93
71361;BME280;59166;48.908;1.870;2023-05-23T12:46:27;100979.13;;;19.89;57.76
71361;BME280;59166;48.908;1.870;2023-05-23T12:51:29;100976.75;;;20.10;56.66
71361;BME280;59166;48.908;1.870;2023-05-23T12:56:30;100986.53;;;20.52;57.48
71361;BME280;59166;48.908;1.870;2023-05-23T13:01:31;100961.34;;;20.72;59.22
71361;BME280;59166;48.908;1.870;2023-05-23T13:06:33;100964.84;;;20.28;57.83
71361;BME280;59166;48.908;1.870;2023-05-23T13:11:34;100957.06;;;20.80;56.05
71361;BME280;59166;48.908;1.870;2023-05-23T13:16:35;100957.75;;;21.08;55.18
71361;BME280;59166;48.908;1.870;2023-05-23T13:21:37;100953.03;;;20.86;57.91
71361;BME280;59166;48.908;1.870;2023-05-23T13:26:38;100967.13;;;20.48;58.05
71361;BME280;59166;48.908;1.870;2023-05-23T13:31:39;100940.88;;;20.78;58.51
71361;BME280;59166;48.908;1.870;2023-05-23T13:36:41;100956.31;;;21.41;52.60
71361;BME280;59166;48.908;1.870;2023-05-23T13:41:45;100952.69;;;21.32;56.03
71361;BME280;59166;48.908;1.870;2023-05-23T13:46:46;100959.06;;;21.72;55.88
71361;BME280;59166;48.908;1.870;2023-05-23T13:51:49;100951.44;;;21.77;53.56
71361;BME280;59166;48.908;1.870;2023-05-23T13:56:52;100965.53;;;20.70;57.01
71361;BME280;59166;48.908;1.870;2023-05-23T14:01:53;100957.66;;;20.90;57.86
71361;BME280;59166;48.908;1.870;2023-05-23T14:06:55;100967.50;;;20.56;57.84
71361;BME280;59166;48.908;1.870;2023-05-23T14:11:56;100973.63;;;19.89;58.70
71361;BME280;59166;48.908;1.870;2023-05-23T14:16:57;100967.25;;;20.43;59.25
71361;BME280;59166;48.908;1.870;2023-05-23T14:21:59;100967.94;;;20.13;58.47
71361;BME280;59166;48.908;1.870;2023-05-23T14:27:00;100981.47;;;19.69;60.62
71361;BME280;59166;48.908;1.870;2023-05-23T14:32:01;100974.63;;;19.25;59.42
71361;BME280;59166;48.908;1.870;2023-05-23T14:37:04;100989.47;;;19.92;58.18
71361;BME280;59166;48.908;1.870;2023-05-23T14:42:05;100975.00;;;19.19;60.72
71361;BME280;59166;48.908;1.870;2023-05-23T14:47:06;100979.63;;;20.19;56.59
71361;BME280;59166;48.908;1.870;2023-05-23T14:52:08;100990.16;;;19.98;56.85
71361;BME280;59166;48.908;1.870;2023-05-23T14:57:09;100987.38;;;20.03;54.63
71361;BME280;59166;48.908;1.870;2023-05-23T15:02:10;100989.13;;;20.35;57.58
71361;BME280;59166;48.908;1.870;2023-05-23T15:07:16;100972.19;;;20.91;55.19
71361;BME280;59166;48.908;1.870;2023-05-23T15:12:17;100989.97;;;20.58;53.66
71361;BME280;59166;48.908;1.870;2023-05-23T15:17:18;100969.22;;;20.65;53.17
71361;BME280;59166;48.908;1.870;2023-05-23T15:22:20;100965.97;;;20.85;52.40
71361;BME280;59166;48.908;1.870;2023-05-23T15:27:21;100982.75;;;20.26;54.87
71361;BME280;59166;48.908;1.870;2023-05-23T15:32:22;100982.16;;;19.61;57.89
71361;BME280;59166;48.908;1.870;2023-05-23T15:37:24;100968.72;;;18.99;57.69
71361;BME280;59166;48.908;1.870;2023-05-23T15:42:25;100967.00;;;19.04;56.87
71361;BME280;59166;48.908;1.870;2023-05-23T15:47:26;100962.44;;;19.99;55.60
71361;BME280;59166;48.908;1.870;2023-05-23T15:52:28;100963.66;;;20.07;56.27
71361;BME280;59166;48.908;1.870;2023-05-23T15:57:29;100960.00;;;19.84;55.04
71361;BME280;59166;48.908;1.870;2023-05-23T16:02:30;100960.75;;;20.39;54.38
71361;BME280;59166;48.908;1.870;2023-05-23T16:07:32;100955.69;;;19.10;54.49
71361;BME280;59166;48.908;1.870;2023-05-23T16:12:33;100953.06;;;18.54;58.27
71361;BME280;59166;48.908;1.870;2023-05-23T16:17:34;100954.81;;;18.45;58.51
71361;BME280;59166;48.908;1.870;2023-05-23T16:22:36;100939.22;;;18.64;56.26
71361;BME280;59166;48.908;1.870;2023-05-23T16:27:37;100940.00;;;19.29;56.32
71361;BME280;59166;48.908;1.870;2023-05-23T16:32:38;100937.88;;;19.26;56.61
71361;BME280;59166;48.908;1.870;2023-05-23T16:37:40;100939.00;;;18.93;56.83
71361;BME280;59166;48.908;1.870;2023-05-23T16:42:41;100940.16;;;18.73;56.70
71361;BME280;59166;48.908;1.870;2023-05-23T16:47:42;100939.59;;;18.39;56.39
71361;BME280;59166;48.908;1.870;2023-05-23T16:52:44;100938.78;;;18.57;58.06
71361;BME280;59166;48.908;1.870;2023-05-23T16:57:45;100933.75;;;18.45;58.01
71361;BME280;59166;48.908;1.870;2023-05-23T17:02:46;100936.69;;;18.68;57.83
71361;BME280;59166;48.908;1.870;2023-05-23T17:07:49;100938.66;;;18.81;55.34
71361;BME280;59166;48.908;1.870;2023-05-23T17:12:50;100928.38;;;18.40;56.48
71361;BME280;59166;48.908;1.870;2023-05-23T17:17:51;100929.03;;;18.51;54.56
71361;BME280;59166;48.908;1.870;2023-05-23T17:22:53;100928.88;;;18.61;55.72
71361;BME280;59166;48.908;1.870;2023-05-23T17:27:54;100924.78;;;18.59;56.72
71361;BME280;59166;48.908;1.870;2023-05-23T17:32:55;100914.22;;;18.52;56.05
71361;BME280;59166;48.908;1.870;2023-05-23T17:37:57;100910.97;;;18.31;59.78
71361;BME280;59166;48.908;1.870;2023-05-23T17:42:58;100910.66;;;17.95;58.37
71361;BME280;59166;48.908;1.870;2023-05-23T17:47:59;100911.97;;;17.79;59.46
71361;BME280;59166;48.908;1.870;2023-05-23T17:53:01;100912.97;;;17.65;61.34
71361;BME280;59166;48.908;1.870;2023-05-23T17:58:02;100911.78;;;17.28;57.42
71361;BME280;59166;48.908;1.870;2023-05-23T18:03:03;100911.19;;;17.31;59.13
71361;BME280;59166;48.908;1.870;2023-05-23T18:08:05;100912.16;;;17.17;59.86
71361;BME280;59166;48.908;1.870;2023-05-23T18:13:06;100918.84;;;17.01;60.61
71361;BME280;59166;48.908;1.870;2023-05-23T18:18:07;100916.19;;;16.95;59.47
71361;BME280;59166;48.908;1.870;2023-05-23T18:23:09;100919.47;;;16.92;59.54
71361;BME280;59166;48.908;1.870;2023-05-23T18:28:10;100920.66;;;16.81;61.17
71361;BME280;59166;48.908;1.870;2023-05-23T18:33:11;100915.56;;;16.70;60.91
71361;BME280;59166;48.908;1.870;2023-05-23T18:38:13;100924.41;;;16.57;58.62
71361;BME280;59166;48.908;1.870;2023-05-23T18:43:14;100934.31;;;16.48;58.92
71361;BME280;59166;48.908;1.870;2023-05-23T18:48:15;100936.84;;;16.34;59.95
71361;BME280;59166;48.908;1.870;2023-05-23T18:53:17;100946.97;;;16.28;59.76
71361;BME280;59166;48.908;1.870;2023-05-23T18:58:18;100951.16;;;16.06;60.84
71361;BME280;59166;48.908;1.870;2023-05-23T19:03:19;100949.56;;;15.94;60.75
71361;BME280;59166;48.908;1.870;2023-05-23T19:08:21;100961.91;;;15.82;61.50
71361;BME280;59166;48.908;1.870;2023-05-23T19:13:22;100980.44;;;15.75;62.46
71361;BME280;59166;48.908;1.870;2023-05-23T19:18:23;100993.03;;;15.51;62.98
71361;BME280;59166;48.908;1.870;2023-05-23T19:23:25;100999.59;;;15.44;63.69
71361;BME280;59166;48.908;1.870;2023-05-23T19:28:26;101001.78;;;15.37;63.96
71361;BME280;59166;48.908;1.870;2023-05-23T19:33:27;101005.91;;;15.15;64.86
71361;BME280;59166;48.908;1.870;2023-05-23T19:38:29;101019.75;;;14.93;65.50
71361;BME280;59166;48.908;1.870;2023-05-23T19:43:30;101022.22;;;14.89;65.72
71361;BME280;59166;48.908;1.870;2023-05-23T19:48:31;101024.66;;;14.81;65.69
71361;BME280;59166;48.908;1.870;2023-05-23T19:53:34;101033.31;;;14.58;67.37
71361;BME280;59166;48.908;1.870;2023-05-23T19:58:34;101025.41;;;14.51;67.58
71361;BME280;59166;48.908;1.870;2023-05-23T20:03:35;101041.16;;;14.44;68.10
71361;BME280;59166;48.908;1.870;2023-05-23T20:08:37;101046.84;;;14.37;68.64
71361;BME280;59166;48.908;1.870;2023-05-23T20:13:38;101041.38;;;14.27;70.19
71361;BME280;59166;48.908;1.870;2023-05-23T20:18:41;101049.72;;;14.06;68.03
71361;BME280;59166;48.908;1.870;2023-05-23T20:23:43;101061.88;;;13.88;67.79
71361;BME280;59166;48.908;1.870;2023-05-23T20:28:44;101058.81;;;13.79;67.24
71361;BME280;59166;48.908;1.870;2023-05-23T20:33:45;101076.16;;;13.73;66.65
71361;BME280;59166;48.908;1.870;2023-05-23T20:38:47;101077.72;;;13.64;66.85
71361;BME280;59166;48.908;1.870;2023-05-23T20:43:48;101087.75;;;13.64;66.21
71361;BME280;59166;48.908;1.870;2023-05-23T20:48:49;101074.03;;;13.44;67.33
71361;BME280;59166;48.908;1.870;2023-05-23T20:53:51;101094.31;;;13.36;67.74
71361;BME280;59166;48.908;1.870;2023-05-23T20:58:52;101076.81;;;13.17;67.47
71361;BME280;59166;48.908;1.870;2023-05-23T21:03:53;101086.22;;;13.09;67.00
71361;BME280;59166;48.908;1.870;2023-05-23T21:08:56;101092.09;;;13.01;67.85
71361;BME280;59166;48.908;1.870;2023-05-23T21:13:57;101101.63;;;13.04;68.44
71361;BME280;59166;48.908;1.870;2023-05-23T21:18:57;101101.53;;;12.94;68.85
71361;BME280;59166;48.908;1.870;2023-05-23T21:24:00;101112.28;;;12.83;68.30
71361;BME280;59166;48.908;1.870;2023-05-23T21:29:01;101116.22;;;12.71;68.48
71361;BME280;59166;48.908;1.870;2023-05-23T21:34:01;101115.78;;;12.57;69.91
71361;BME280;59166;48.908;1.870;2023-05-23T21:39:04;101118.88;;;12.44;70.14
71361;BME280;59166;48.908;1.870;2023-05-23T21:44:05;101118.69;;;12.29;71.39
71361;BME280;59166;48.908;1.870;2023-05-23T21:49:06;101126.41;;;12.20;71.23
71361;BME280;59166;48.908;1.870;2023-05-23T21:54:08;101128.09;;;12.05;71.82
71361;BME280;59166;48.908;1.870;2023-05-23T21:59:09;101134.75;;;11.97;73.50
71361;BME280;59166;48.908;1.870;2023-05-23T22:04:11;101139.47;;;11.85;73.24
71361;BME280;59166;48.908;1.870;2023-05-23T22:09:15;101131.75;;;11.77;73.32
71361;BME280;59166;48.908;1.870;2023-05-23T22:14:15;101120.19;;;11.81;72.59
71361;BME280;59166;48.908;1.870;2023-05-23T22:19:16;101124.84;;;11.69;72.28
71361;BME280;59166;48.908;1.870;2023-05-23T22:24:19;101123.09;;;11.58;74.47
71361;BME280;59166;48.908;1.870;2023-05-23T22:29:20;101123.47;;;11.50;74.11
71361;BME280;59166;48.908;1.870;2023-05-23T22:34:21;101119.22;;;11.38;73.72
71361;BME280;59166;48.908;1.870;2023-05-23T22:39:23;101115.09;;;11.18;74.70
71361;BME280;59166;48.908;1.870;2023-05-23T22:44:24;101122.72;;;11.21;74.06
71361;BME280;59166;48.908;1.870;2023-05-23T22:49:25;101119.44;;;11.19;74.79
71361;BME280;59166;48.908;1.870;2023-05-23T22:54:27;101107.56;;;11.04;74.32
71361;BME280;59166;48.908;1.870;2023-05-23T22:59:28;101111.47;;;10.96;74.84
71361;BME280;59166;48.908;1.870;2023-05-23T23:04:29;101117.94;;;10.95;74.89
71361;BME280;59166;48.908;1.870;2023-05-23T23:09:32;101117.75;;;10.85;75.77
71361;BME280;59166;48.908;1.870;2023-05-23T23:14:32;101110.38;;;10.80;75.90
71361;BME280;59166;48.908;1.870;2023-05-23T23:19:33;101113.19;;;10.74;76.12
71361;BME280;59166;48.908;1.870;2023-05-23T23:24:36;101109.00;;;10.66;76.84
71361;BME280;59166;48.908;1.870;2023-05-23T23:29:37;101114.34;;;10.50;77.72
71361;BME280;59166;48.908;1.870;2023-05-23T23:34:38;101113.16;;;10.46;77.46
71361;BME280;59166;48.908;1.870;2023-05-23T23:39:40;101112.22;;;10.40;77.77
71361;BME280;59166;48.908;1.870;2023-05-23T23:44:41;101115.75;;;10.41;78.27
71361;BME280;59166;48.908;1.870;2023-05-23T23:49:44;101111.66;;;10.38;77.50
71361;BME280;59166;48.908;1.870;2023-05-23T23:54:47;101110.41;;;10.29;78.38
71361;BME280;59166;48.908;1.870;2023-05-23T23:59:48;101110.06;;;10.25;78.81
